sensor_id;sensor_type;location;lat;lon;timestamp;pressure;altitude;pressure_sealevel;temperature;humidity
12475;BME280;6302;42.624;23.334;2023-04-06T00:00:24;92958.16;;;-0.03;100.00
12475;BME280;6302;42.624;23.334;2023-04-06T00:02:51;92950.19;;;0.06;100.00
12475;BME280;6302;42.624;23.334;2023-04-06T00:05:19;92947.25;;;0.07;100.00
12475;BME280;6302;42.624;23.334;2023-04-06T00:07:46;92947.34;;;0.11;100.00
12475;BME280;6302;42.624;23.334;2023-04-06T00:10:16;92946.66;;;0.14;100.00
12475;BME280;6302;42.624;23.334;2023-04-06T00:12:43;92951.59;;;0.03;100.00
12475;BME280;6302;42.624;23.334;2023-04-06T00:15:10;92949.41;;;0.05;100.00
12475;BME280;6302;42.624;23.334;2023-04-06T00:17:37;92949.25;;;-0.02;100.00
12475;BME280;6302;42.624;23.334;2023-04-06T00:20:05;92935.03;;;-0.05;100.00
12475;BME280;6302;42.624;23.334;2023-04-06T00:22:33;92937.09;;;0.02;100.00
12475;BME280;6302;42.624;23.334;2023-04-06T00:25:00;92943.78;;;-0.13;100.00
12475;BME280;6302;42.624;23.334;2023-04-06T00:27:29;92939.78;;;-0.22;100.00
12475;BME280;6302;42.624;23.334;2023-04-06T00:29:56;92922.75;;;-0.20;100.00
12475;BME280;6302;42.624;23.334;2023-04-06T00:32:23;92926.09;;;-0.19;100.00
12475;BME280;6302;42.624;23.334;2023-04-06T00:34:49;92923.59;;;-0.16;100.00
12475;BME280;6302;42.624;23.334;2023-04-06T00:37:16;92920.66;;;-0.14;100.00
12475;BME280;6302;42.624;23.334;2023-04-06T00:39:44;92923.03;;;-0.09;100.00
12475;BME280;6302;42.624;23.334;2023-04-06T00:42:12;92921.69;;;-0.03;100.00
12475;BME280;6302;42.624;23.334;2023-04-06T00:44:41;92923.53;;;-0.04;100.00
12475;BME280;6302;42.624;23.334;2023-04-06T00:47:08;92927.91;;;-0.08;100.00
12475;BME280;6302;42.624;23.334;2023-04-06T00:49:35;92914.94;;;-0.20;100.00
12475;BME280;6302;42.624;23.334;2023-04-06T00:52:02;92908.84;;;-0.39;100.00
12475;BME280;6302;42.624;23.334;2023-04-06T00:54:29;92910.75;;;-0.52;100.00
12475;BME280;6302;42.624;23.334;2023-04-06T00:56:57;92906.94;;;-0.42;100.00
12475;BME280;6302;42.624;23.334;2023-04-06T00:59:24;92914.38;;;-0.41;100.00
12475;BME280;6302;42.624;23.334;2023-04-06T01:01:52;92923.81;;;-0.36;100.00
12475;BME280;6302;42.624;23.334;2023-04-06T01:04:19;92921.91;;;-0.51;100.00
12475;BME280;6302;42.624;23.334;2023-04-06T01:06:48;92923.84;;;-0.48;100.00
12475;BME280;6302;42.624;23.334;2023-04-06T01:09:15;92922.00;;;-0.48;100.00
12475;BME280;6302;42.624;23.334;2023-04-06T01:11:42;92920.66;;;-0.42;100.00
12475;BME280;6302;42.624;23.334;2023-04-06T01:14:12;92915.16;;;-0.40;100.00
12475;BME280;6302;42.624;23.334;2023-04-06T01:16:42;92894.28;;;-0.56;100.00
12475;BME280;6302;42.624;23.334;2023-04-06T01:19:11;92890.91;;;-0.56;100.00
12475;BME280;6302;42.624;23.334;2023-04-06T01:21:38;92869.31;;;-0.73;100.00
12475;BME280;6302;42.624;23.334;2023-04-06T01:24:09;92882.50;;;-0.66;100.00
12475;BME280;6302;42.624;23.334;2023-04-06T01:26:38;92897.94;;;-0.73;100.00
12475;BME280;6302;42.624;23.334;2023-04-06T01:29:05;92898.28;;;-0.86;100.00
12475;BME280;6302;42.624;23.334;2023-04-06T01:31:32;92902.59;;;-0.78;100.00
12475;BME280;6302;42.624;23.334;2023-04-06T01:33:59;92896.22;;;-0.81;100.00
12475;BME280;6302;42.624;23.334;2023-04-06T01:36:26;92893.81;;;-0.74;100.00
12475;BME280;6302;42.624;23.334;2023-04-06T01:38:53;92894.56;;;-0.73;100.00
12475;BME280;6302;42.624;23.334;2023-04-06T01:41:21;92901.06;;;-0.67;100.00
12475;BME280;6302;42.624;23.334;2023-04-06T01:43:48;92892.50;;;-0.68;100.00
12475;BME280;6302;42.624;23.334;2023-04-06T01:46:19;92892.69;;;-0.60;100.00
12475;BME280;6302;42.624;23.334;2023-04-06T01:48:46;92890.72;;;-0.63;100.00
12475;BME280;6302;42.624;23.334;2023-04-06T01:51:13;92890.31;;;-0.66;100.00
12475;BME280;6302;42.624;23.334;2023-04-06T01:53:40;92889.88;;;-0.68;100.00
12475;BME280;6302;42.624;23.334;2023-04-06T01:56:07;92878.13;;;-0.77;100.00
12475;BME280;6302;42.624;23.334;2023-04-06T01:58:35;92877.34;;;-0.78;100.00
12475;BME280;6302;42.624;23.334;2023-04-06T02:01:02;92872.81;;;-0.81;100.00
12475;BME280;6302;42.624;23.334;2023-04-06T02:03:29;92875.75;;;-0.82;100.00
12475;BME280;6302;42.624;23.334;2023-04-06T02:05:56;92881.59;;;-0.85;100.00
12475;BME280;6302;42.624;23.334;2023-04-06T02:08:23;92880.84;;;-0.86;100.00
12475;BME280;6302;42.624;23.334;2023-04-06T02:10:50;92879.22;;;-0.90;100.00
12475;BME280;6302;42.624;23.334;2023-04-06T02:13:17;92877.25;;;-0.81;100.00
12475;BME280;6302;42.624;23.334;2023-04-06T02:15:45;92868.03;;;-0.79;100.00
12475;BME280;6302;42.624;23.334;2023-04-06T02:18:12;92879.53;;;-0.80;100.00
12475;BME280;6302;42.624;23.334;2023-04-06T02:20:39;92884.06;;;-0.77;100.00
12475;BME280;6302;42.624;23.334;2023-04-06T02:23:06;92873.16;;;-0.67;100.00
12475;BME280;6302;42.624;23.334;2023-04-06T02:25:33;92877.31;;;-0.66;100.00
12475;BME280;6302;42.624;23.334;2023-04-06T02:28:00;92860.16;;;-0.67;100.00
12475;BME280;6302;42.624;23.334;2023-04-06T02:30:27;92866.91;;;-0.66;100.00
12475;BME280;6302;42.624;23.334;2023-04-06T02:32:55;92864.72;;;-0.63;100.00
12475;BME280;6302;42.624;23.334;2023-04-06T02:35:22;92867.97;;;-0.67;100.00
12475;BME280;6302;42.624;23.334;2023-04-06T02:37:49;92872.19;;;-0.62;100.00
12475;BME280;6302;42.624;23.334;2023-04-06T02:40:16;92871.03;;;-0.64;100.00
12475;BME280;6302;42.624;23.334;2023-04-06T02:42:43;92864.41;;;-0.62;100.00
12475;BME280;6302;42.624;23.334;2023-04-06T02:45:10;92865.81;;;-0.64;100.00
12475;BME280;6302;42.624;23.334;2023-04-06T02:47:37;92870.69;;;-0.63;100.00
12475;BME280;6302;42.624;23.334;2023-04-06T02:50:06;92870.44;;;-0.58;100.00
12475;BME280;6302;42.624;23.334;2023-04-06T02:52:32;92860.38;;;-0.59;100.00
12475;BME280;6302;42.624;23.334;2023-04-06T02:54:59;92868.25;;;-0.56;100.00
12475;BME280;6302;42.624;23.334;2023-04-06T02:57:26;92857.09;;;-0.56;100.00
12475;BME280;6302;42.624;23.334;2023-04-06T02:59:53;92859.63;;;-0.60;100.00
12475;BME280;6302;42.624;23.334;2023-04-06T03:02:20;92856.25;;;-0.60;100.00
12475;BME280;6302;42.624;23.334;2023-04-06T03:04:47;92858.50;;;-0.59;100.00
12475;BME280;6302;42.624;23.334;2023-04-06T03:07:15;92872.19;;;-0.62;100.00
12475;BME280;6302;42.624;23.334;2023-04-06T03:09:42;92865.22;;;-0.58;100.00
12475;BME280;6302;42.624;23.334;2023-04-06T03:12:09;92854.41;;;-0.60;100.00
12475;BME280;6302;42.624;23.334;2023-04-06T03:14:36;92859.03;;;-0.53;100.00
12475;BME280;6302;42.624;23.334;2023-04-06T03:17:02;92865.09;;;-0.49;100.00
12475;BME280;6302;42.624;23.334;2023-04-06T03:19:29;92853.41;;;-0.55;100.00
12475;BME280;6302;42.624;23.334;2023-04-06T03:21:56;92854.47;;;-0.56;100.00
12475;BME280;6302;42.624;23.334;2023-04-06T03:24:24;92852.63;;;-0.56;100.00
12475;BME280;6302;42.624;23.334;2023-04-06T03:26:51;92847.03;;;-0.58;100.00
12475;BME280;6302;42.624;23.334;2023-04-06T03:29:18;92850.28;;;-0.61;100.00
12475;BME280;6302;42.624;23.334;2023-04-06T03:31:45;92866.00;;;-0.57;100.00
12475;BME280;6302;42.624;23.334;2023-04-06T03:34:12;92857.44;;;-0.58;100.00
12475;BME280;6302;42.624;23.334;2023-04-06T03:36:39;92857.09;;;-0.56;100.00
12475;BME280;6302;42.624;23.334;2023-04-06T03:39:06;92858.59;;;-0.55;100.00
12475;BME280;6302;42.624;23.334;2023-04-06T03:41:34;92869.53;;;-0.50;100.00
12475;BME280;6302;42.624;23.334;2023-04-06T03:44:01;92865.09;;;-0.49;100.00
12475;BME280;6302;42.624;23.334;2023-04-06T03:46:28;92857.94;;;-0.52;100.00
12475;BME280;6302;42.624;23.334;2023-04-06T03:48:55;92852.56;;;-0.59;100.00
12475;BME280;6302;42.624;23.334;2023-04-06T03:51:21;92856.84;;;-0.51;100.00
12475;BME280;6302;42.624;23.334;2023-04-06T03:53:48;92850.38;;;-0.57;100.00
12475;BME280;6302;42.624;23.334;2023-04-06T03:56:15;92852.97;;;-0.57;100.00
12475;BME280;6302;42.624;23.334;2023-04-06T03:58:44;92843.38;;;-0.69;100.00
12475;BME280;6302;42.624;23.334;2023-04-06T04:01:14;92855.16;;;-0.59;100.00
12475;BME280;6302;42.624;23.334;2023-04-06T04:03:41;92863.06;;;-0.56;100.00
12475;BME280;6302;42.624;23.334;2023-04-06T04:06:08;92854.25;;;-0.51;100.00
12475;BME280;6302;42.624;23.334;2023-04-06T04:08:35;92851.22;;;-0.53;100.00
12475;BME280;6302;42.624;23.334;2023-04-06T04:11:02;92868.44;;;-0.49;100.00
12475;BME280;6302;42.624;23.334;2023-04-06T04:13:29;92876.78;;;-0.43;100.00
12475;BME280;6302;42.624;23.334;2023-04-06T04:15:57;92858.66;;;-0.40;100.00
12475;BME280;6302;42.624;23.334;2023-04-06T04:18:24;92859.31;;;-0.43;100.00
12475;BME280;6302;42.624;23.334;2023-04-06T04:20:50;92853.75;;;-0.41;100.00
12475;BME280;6302;42.624;23.334;2023-04-06T04:23:17;92875.22;;;-0.32;100.00
12475;BME280;6302;42.624;23.334;2023-04-06T04:25:44;92859.25;;;-0.31;100.00
12475;BME280;6302;42.624;23.334;2023-04-06T04:28:11;92859.00;;;-0.26;100.00
12475;BME280;6302;42.624;23.334;2023-04-06T04:30:38;92860.84;;;-0.26;100.00
12475;BME280;6302;42.624;23.334;2023-04-06T04:33:06;92856.16;;;-0.21;100.00
12475;BME280;6302;42.624;23.334;2023-04-06T04:35:33;92871.19;;;-0.14;100.00
12475;BME280;6302;42.624;23.334;2023-04-06T04:38:00;92870.94;;;-0.09;100.00
12475;BME280;6302;42.624;23.334;2023-04-06T04:40:27;92873.94;;;-0.07;100.00
12475;BME280;6302;42.624;23.334;2023-04-06T04:42:54;92865.06;;;-0.06;100.00
12475;BME280;6302;42.624;23.334;2023-04-06T04:45:20;92870.44;;;0.01;100.00
12475;BME280;6302;42.624;23.334;2023-04-06T04:47:47;92872.78;;;0.06;100.00
12475;BME280;6302;42.624;23.334;2023-04-06T04:50:16;92870.69;;;0.12;100.00
12475;BME280;6302;42.624;23.334;2023-04-06T04:52:44;92871.28;;;0.05;100.00
12475;BME280;6302;42.624;23.334;2023-04-06T04:55:11;92862.13;;;0.11;100.00
12475;BME280;6302;42.624;23.334;2023-04-06T04:57:38;92865.66;;;0.19;100.00
12475;BME280;6302;42.624;23.334;2023-04-06T05:00:06;92863.66;;;0.12;100.00
12475;BME280;6302;42.624;23.334;2023-04-06T05:02:33;92863.47;;;0.21;100.00
12475;BME280;6302;42.624;23.334;2023-04-06T05:05:00;92868.34;;;0.22;100.00
12475;BME280;6302;42.624;23.334;2023-04-06T05:07:28;92863.56;;;0.24;100.00
12475;BME280;6302;42.624;23.334;2023-04-06T05:09:55;92861.38;;;0.26;100.00
12475;BME280;6302;42.624;23.334;2023-04-06T05:12:22;92860.75;;;0.33;100.00
12475;BME280;6302;42.624;23.334;2023-04-06T05:14:48;92861.00;;;0.43;100.00
12475;BME280;6302;42.624;23.334;2023-04-06T05:17:15;92853.59;;;0.45;100.00
12475;BME280;6302;42.624;23.334;2023-04-06T05:19:43;92866.78;;;0.52;100.00
12475;BME280;6302;42.624;23.334;2023-04-06T05:22:10;92865.44;;;0.58;100.00
12475;BME280;6302;42.624;23.334;2023-04-06T05:24:38;92866.19;;;0.59;100.00
12475;BME280;6302;42.624;23.334;2023-04-06T05:27:05;92876.94;;;0.57;100.00
12475;BME280;6302;42.624;23.334;2023-04-06T05:29:32;92877.09;;;0.64;100.00
12475;BME280;6302;42.624;23.334;2023-04-06T05:31:59;92873.69;;;0.60;100.00
12475;BME280;6302;42.624;23.334;2023-04-06T05:34:26;92876.28;;;0.60;100.00
12475;BME280;6302;42.624;23.334;2023-04-06T05:36:53;92878.78;;;0.73;100.00
12475;BME280;6302;42.624;23.334;2023-04-06T05:39:22;92887.16;;;0.82;100.00
12475;BME280;6302;42.624;23.334;2023-04-06T05:41:51;92885.81;;;0.88;100.00
12475;BME280;6302;42.624;23.334;2023-04-06T05:44:17;92881.34;;;0.88;100.00
12475;BME280;6302;42.624;23.334;2023-04-06T05:46:44;92888.38;;;1.03;100.00
12475;BME280;6302;42.624;23.334;2023-04-06T05:49:11;92874.44;;;0.96;100.00
12475;BME280;6302;42.624;23.334;2023-04-06T05:51:38;92889.84;;;1.20;100.00
12475;BME280;6302;42.624;23.334;2023-04-06T05:54:05;92880.97;;;1.44;100.00
12475;BME280;6302;42.624;23.334;2023-04-06T05:56:32;92878.94;;;1.53;100.00
12475;BME280;6302;42.624;23.334;2023-04-06T05:59:00;92877.25;;;1.64;100.00
12475;BME280;6302;42.624;23.334;2023-04-06T06:01:27;92882.44;;;1.60;100.00
12475;BME280;6302;42.624;23.334;2023-04-06T06:03:55;92884.41;;;1.67;100.00
12475;BME280;6302;42.624;23.334;2023-04-06T06:06:22;92871.28;;;1.63;100.00
12475;BME280;6302;42.624;23.334;2023-04-06T06:08:49;92860.22;;;1.51;100.00
12475;BME280;6302;42.624;23.334;2023-04-06T06:11:16;92864.00;;;1.53;100.00
12475;BME280;6302;42.624;23.334;2023-04-06T06:13:42;92880.22;;;1.62;100.00
12475;BME280;6302;42.624;23.334;2023-04-06T06:16:11;92876.34;;;1.75;100.00
12475;BME280;6302;42.624;23.334;2023-04-06T06:18:38;92869.44;;;1.86;100.00
12475;BME280;6302;42.624;23.334;2023-04-06T06:21:04;92871.78;;;1.91;100.00
12475;BME280;6302;42.624;23.334;2023-04-06T06:23:31;92872.13;;;1.90;100.00
12475;BME280;6302;42.624;23.334;2023-04-06T06:25:58;92868.63;;;2.05;100.00
12475;BME280;6302;42.624;23.334;2023-04-06T06:28:26;92874.88;;;1.97;100.00
12475;BME280;6302;42.624;23.334;2023-04-06T06:30:53;92872.00;;;2.06;100.00
12475;BME280;6302;42.624;23.334;2023-04-06T06:33:21;92892.88;;;2.02;100.00
12475;BME280;6302;42.624;23.334;2023-04-06T06:35:49;92865.56;;;2.00;100.00
12475;BME280;6302;42.624;23.334;2023-04-06T06:38:16;92868.88;;;1.96;100.00
12475;BME280;6302;42.624;23.334;2023-04-06T06:40:45;92869.13;;;2.11;100.00
12475;BME280;6302;42.624;23.334;2023-04-06T06:43:12;92867.31;;;2.15;100.00
12475;BME280;6302;42.624;23.334;2023-04-06T06:45:39;92865.22;;;2.24;100.00
12475;BME280;6302;42.624;23.334;2023-04-06T06:48:06;92870.91;;;2.29;100.00
12475;BME280;6302;42.624;23.334;2023-04-06T06:50:34;92864.06;;;2.44;100.00
12475;BME280;6302;42.624;23.334;2023-04-06T06:53:01;92875.09;;;2.34;100.00
12475;BME280;6302;42.624;23.334;2023-04-06T06:55:28;92873.97;;;2.35;100.00
12475;BME280;6302;42.624;23.334;2023-04-06T06:57:55;92883.50;;;2.46;100.00
12475;BME280;6302;42.624;23.334;2023-04-06T07:00:25;92873.47;;;2.26;100.00
12475;BME280;6302;42.624;23.334;2023-04-06T07:02:52;92872.78;;;2.29;100.00
12475;BME280;6302;42.624;23.334;2023-04-06T07:05:19;92878.28;;;2.46;100.00
12475;BME280;6302;42.624;23.334;2023-04-06T07:07:47;92869.00;;;2.49;100.00
12475;BME280;6302;42.624;23.334;2023-04-06T07:10:14;92868.75;;;2.35;100.00
12475;BME280;6302;42.624;23.334;2023-04-06T07:12:41;92855.16;;;2.26;100.00
12475;BME280;6302;42.624;23.334;2023-04-06T07:15:08;92860.28;;;2.19;100.00
12475;BME280;6302;42.624;23.334;2023-04-06T07:17:35;92841.31;;;1.99;100.00
12475;BME280;6302;42.624;23.334;2023-04-06T07:20:03;92859.81;;;2.36;100.00
12475;BME280;6302;42.624;23.334;2023-04-06T07:22:30;92868.53;;;2.43;100.00
12475;BME280;6302;42.624;23.334;2023-04-06T07:24:58;92857.38;;;2.46;100.00
12475;BME280;6302;42.624;23.334;2023-04-06T07:27:25;92869.03;;;2.79;100.00
12475;BME280;6302;42.624;23.334;2023-04-06T07:29:52;92863.81;;;2.79;100.00
12475;BME280;6302;42.624;23.334;2023-04-06T07:32:19;92864.31;;;2.88;100.00
12475;BME280;6302;42.624;23.334;2023-04-06T07:34:46;92861.41;;;2.96;100.00
12475;BME280;6302;42.624;23.334;2023-04-06T07:37:13;92859.47;;;2.90;100.00
12475;BME280;6302;42.624;23.334;2023-04-06T07:39:40;92863.44;;;2.80;100.00
12475;BME280;6302;42.624;23.334;2023-04-06T07:42:08;92868.03;;;2.60;100.00
12475;BME280;6302;42.624;23.334;2023-04-06T07:44:35;92859.16;;;2.42;100.00
12475;BME280;6302;42.624;23.334;2023-04-06T07:47:02;92857.41;;;2.50;100.00
12475;BME280;6302;42.624;23.334;2023-04-06T07:49:29;92860.63;;;2.66;100.00
12475;BME280;6302;42.624;23.334;2023-04-06T07:51:57;92857.94;;;2.59;100.00
12475;BME280;6302;42.624;23.334;2023-04-06T07:54:24;92856.72;;;2.53;100.00
12475;BME280;6302;42.624;23.334;2023-04-06T07:56:51;92862.28;;;2.78;100.00
12475;BME280;6302;42.624;23.334;2023-04-06T07:59:19;92855.69;;;3.13;100.00
12475;BME280;6302;42.624;23.334;2023-04-06T08:01:46;92860.25;;;3.23;100.00
12475;BME280;6302;42.624;23.334;2023-04-06T08:04:13;92864.78;;;3.26;100.00
12475;BME280;6302;42.624;23.334;2023-04-06T08:06:40;92867.25;;;3.12;100.00
12475;BME280;6302;42.624;23.334;2023-04-06T08:09:06;92856.06;;;3.15;100.00
12475;BME280;6302;42.624;23.334;2023-04-06T08:11:33;92864.78;;;3.26;100.00
12475;BME280;6302;42.624;23.334;2023-04-06T08:14:00;92781.84;;;2.71;100.00
12475;BME280;6302;42.624;23.334;2023-04-06T08:16:28;92859.78;;;3.14;100.00
12475;BME280;6302;42.624;23.334;2023-04-06T08:18:55;92860.78;;;3.36;100.00
12475;BME280;6302;42.624;23.334;2023-04-06T08:21:22;92856.31;;;3.37;100.00
12475;BME280;6302;42.624;23.334;2023-04-06T08:23:49;92871.09;;;3.22;100.00
12475;BME280;6302;42.624;23.334;2023-04-06T08:26:16;92865.72;;;3.11;100.00
12475;BME280;6302;42.624;23.334;2023-04-06T08:28:43;92858.38;;;2.91;100.00
12475;BME280;6302;42.624;23.334;2023-04-06T08:31:11;92858.00;;;2.92;100.00
12475;BME280;6302;42.624;23.334;2023-04-06T08:33:42;92871.84;;;2.93;100.00
12475;BME280;6302;42.624;23.334;2023-04-06T08:36:10;92864.25;;;2.84;100.00
12475;BME280;6302;42.624;23.334;2023-04-06T08:38:38;92863.22;;;2.89;100.00
12475;BME280;6302;42.624;23.334;2023-04-06T08:41:09;92840.81;;;2.91;100.00
12475;BME280;6302;42.624;23.334;2023-04-06T08:43:42;92866.66;;;2.96;100.00
12475;BME280;6302;42.624;23.334;2023-04-06T08:46:11;92856.38;;;2.84;100.00
12475;BME280;6302;42.624;23.334;2023-04-06T08:48:40;92848.13;;;2.79;100.00
12475;BME280;6302;42.624;23.334;2023-04-06T08:51:08;92857.25;;;2.92;100.00
12475;BME280;6302;42.624;23.334;2023-04-06T08:53:35;92852.84;;;2.99;100.00
12475;BME280;6302;42.624;23.334;2023-04-06T08:56:03;92848.75;;;2.98;100.00
12475;BME280;6302;42.624;23.334;2023-04-06T08:58:34;92855.69;;;3.13;100.00
12475;BME280;6302;42.624;23.334;2023-04-06T09:01:02;92861.63;;;3.44;100.00
12475;BME280;6302;42.624;23.334;2023-04-06T09:03:35;92854.34;;;3.60;100.00
12475;BME280;6302;42.624;23.334;2023-04-06T09:06:05;92863.41;;;3.69;100.00
12475;BME280;6302;42.624;23.334;2023-04-06T09:08:32;92850.59;;;3.61;100.00
12475;BME280;6302;42.624;23.334;2023-04-06T09:11:00;92856.53;;;3.91;100.00
12475;BME280;6302;42.624;23.334;2023-04-06T09:13:27;92857.31;;;3.95;100.00
12475;BME280;6302;42.624;23.334;2023-04-06T09:16:01;92856.97;;;4.00;100.00
12475;BME280;6302;42.624;23.334;2023-04-06T09:18:29;92844.69;;;4.08;100.00
12475;BME280;6302;42.624;23.334;2023-04-06T09:21:00;92856.41;;;4.21;100.00
12475;BME280;6302;42.624;23.334;2023-04-06T09:23:29;92854.47;;;4.58;100.00
12475;BME280;6302;42.624;23.334;2023-04-06T09:26:09;92844.69;;;4.51;100.00
12475;BME280;6302;42.624;23.334;2023-04-06T09:28:44;92849.13;;;4.47;100.00
12475;BME280;6302;42.624;23.334;2023-04-06T09:31:12;92840.91;;;4.49;100.00
12475;BME280;6302;42.624;23.334;2023-04-06T09:33:40;92852.56;;;4.55;100.00
12475;BME280;6302;42.624;23.334;2023-04-06T09:36:08;92864.59;;;4.59;100.00
12475;BME280;6302;42.624;23.334;2023-04-06T09:38:38;92848.16;;;4.70;100.00
12475;BME280;6302;42.624;23.334;2023-04-06T09:41:05;92859.75;;;4.62;100.00
12475;BME280;6302;42.624;23.334;2023-04-06T09:43:31;92859.63;;;4.47;100.00
12475;BME280;6302;42.624;23.334;2023-04-06T09:46:00;92851.38;;;4.42;100.00
12475;BME280;6302;42.624;23.334;2023-04-06T09:48:31;92863.53;;;4.64;100.00
12475;BME280;6302;42.624;23.334;2023-04-06T09:51:01;92847.16;;;4.85;100.00
12475;BME280;6302;42.624;23.334;2023-04-06T09:53:31;92859.25;;;5.00;100.00
12475;BME280;6302;42.624;23.334;2023-04-06T09:56:02;92864.59;;;5.17;100.00
12475;BME280;6302;42.624;23.334;2023-04-06T09:58:33;92864.47;;;4.93;100.00
12475;BME280;6302;42.624;23.334;2023-04-06T10:01:04;92851.44;;;5.10;100.00
12475;BME280;6302;42.624;23.334;2023-04-06T10:03:40;92857.13;;;5.23;100.00
12475;BME280;6302;42.624;23.334;2023-04-06T10:06:13;92858.94;;;5.12;100.00
12475;BME280;6302;42.624;23.334;2023-04-06T10:08:40;92850.31;;;5.15;100.00
12475;BME280;6302;42.624;23.334;2023-04-06T10:11:11;92856.16;;;4.84;100.00
12475;BME280;6302;42.624;23.334;2023-04-06T10:13:38;92857.97;;;4.76;100.00
12475;BME280;6302;42.624;23.334;2023-04-06T10:16:06;92850.75;;;4.63;100.00
12475;BME280;6302;42.624;23.334;2023-04-06T10:18:34;92842.16;;;4.69;100.00
12475;BME280;6302;42.624;23.334;2023-04-06T10:21:04;92848.63;;;4.79;100.00
12475;BME280;6302;42.624;23.334;2023-04-06T10:23:35;92837.38;;;4.78;100.00
12475;BME280;6302;42.624;23.334;2023-04-06T10:26:03;92856.16;;;4.84;100.00
12475;BME280;6302;42.624;23.334;2023-04-06T10:28:32;92846.31;;;4.70;100.00
12475;BME280;6302;42.624;23.334;2023-04-06T10:31:03;92842.28;;;4.87;100.00
12475;BME280;6302;42.624;23.334;2023-04-06T10:33:31;92852.22;;;4.56;100.00
12475;BME280;6302;42.624;23.334;2023-04-06T10:35:58;92849.19;;;4.54;100.00
12475;BME280;6302;42.624;23.334;2023-04-06T10:38:36;92847.59;;;4.43;100.00
12475;BME280;6302;42.624;23.334;2023-04-06T10:41:04;92846.13;;;4.45;100.00
12475;BME280;6302;42.624;23.334;2023-04-06T10:43:34;92845.31;;;4.34;100.00
12475;BME280;6302;42.624;23.334;2023-04-06T10:46:02;92842.91;;;4.66;100.00
12475;BME280;6302;42.624;23.334;2023-04-06T10:48:37;92842.53;;;4.64;100.00
12475;BME280;6302;42.624;23.334;2023-04-06T10:51:07;92837.44;;;4.89;100.00
12475;BME280;6302;42.624;23.334;2023-04-06T10:53:35;92858.47;;;4.96;100.00
12475;BME280;6302;42.624;23.334;2023-04-06T10:56:02;92845.34;;;4.99;100.00
12475;BME280;6302;42.624;23.334;2023-04-06T10:58:30;92843.44;;;4.93;100.00
12475;BME280;6302;42.624;23.334;2023-04-06T11:00:58;92858.13;;;5.01;100.00
12475;BME280;6302;42.624;23.334;2023-04-06T11:03:26;92847.16;;;4.85;100.00
12475;BME280;6302;42.624;23.334;2023-04-06T11:05:53;92842.28;;;4.83;100.00
12475;BME280;6302;42.624;23.334;2023-04-06T11:08:25;92841.91;;;4.85;100.00
12475;BME280;6302;42.624;23.334;2023-04-06T11:11:04;92836.22;;;4.79;100.00
12475;BME280;6302;42.624;23.334;2023-04-06T11:13:40;92850.72;;;4.55;100.00
12475;BME280;6302;42.624;23.334;2023-04-06T11:16:12;92833.59;;;4.25;100.00
12475;BME280;6302;42.624;23.334;2023-04-06T11:18:47;92835.53;;;4.31;100.00
12475;BME280;6302;42.624;23.334;2023-04-06T11:21:14;92835.97;;;4.40;100.00
12475;BME280;6302;42.624;23.334;2023-04-06T11:23:41;92833.25;;;4.26;100.00
12475;BME280;6302;42.624;23.334;2023-04-06T11:26:10;92832.59;;;4.36;100.00
12475;BME280;6302;42.624;23.334;2023-04-06T11:28:37;92830.44;;;4.52;100.00
12475;BME280;6302;42.624;23.334;2023-04-06T11:31:05;92815.41;;;4.49;100.00
12475;BME280;6302;42.624;23.334;2023-04-06T11:33:36;92842.84;;;4.55;100.00
12475;BME280;6302;42.624;23.334;2023-04-06T11:36:05;92818.03;;;4.49;100.00
12475;BME280;6302;42.624;23.334;2023-04-06T11:38:32;92816.97;;;4.54;100.00
12475;BME280;6302;42.624;23.334;2023-04-06T11:41:01;92813.38;;;4.80;100.00
12475;BME280;6302;42.624;23.334;2023-04-06T11:43:28;92806.66;;;4.86;100.00
12475;BME280;6302;42.624;23.334;2023-04-06T11:46:03;92813.75;;;4.78;100.00
12475;BME280;6302;42.624;23.334;2023-04-06T11:48:32;92808.38;;;4.60;100.00
12475;BME280;6302;42.624;23.334;2023-04-06T11:51:01;92797.53;;;4.66;100.00
12475;BME280;6302;42.624;23.334;2023-04-06T11:53:30;92808.03;;;4.66;100.00
12475;BME280;6302;42.624;23.334;2023-04-06T11:55:58;92809.59;;;4.74;100.00
12475;BME280;6302;42.624;23.334;2023-04-06T11:58:25;92814.41;;;4.65;100.00
12475;BME280;6302;42.624;23.334;2023-04-06T12:00:52;92808.75;;;4.59;100.00
12475;BME280;6302;42.624;23.334;2023-04-06T12:03:19;92811.66;;;4.47;100.00
12475;BME280;6302;42.624;23.334;2023-04-06T12:05:46;92800.59;;;4.75;100.00
12475;BME280;6302;42.624;23.334;2023-04-06T12:08:14;92809.63;;;4.84;100.00
12475;BME280;6302;42.624;23.334;2023-04-06T12:10:41;92811.09;;;4.75;100.00
12475;BME280;6302;42.624;23.334;2023-04-06T12:13:08;92821.38;;;4.43;100.00
12475;BME280;6302;42.624;23.334;2023-04-06T12:15:35;92817.25;;;4.42;100.00
12475;BME280;6302;42.624;23.334;2023-04-06T12:18:02;92813.94;;;4.52;100.00
12475;BME280;6302;42.624;23.334;2023-04-06T12:20:29;92812.44;;;4.54;100.00
12475;BME280;6302;42.624;23.334;2023-04-06T12:22:56;92827.09;;;4.55;100.00
12475;BME280;6302;42.624;23.334;2023-04-06T12:25:24;92809.03;;;4.47;100.00
12475;BME280;6302;42.624;23.334;2023-04-06T12:27:52;92811.97;;;4.38;100.00
12475;BME280;6302;42.624;23.334;2023-04-06T12:30:19;92816.84;;;4.40;100.00
12475;BME280;6302;42.624;23.334;2023-04-06T12:32:46;92812.03;;;4.42;100.00
12475;BME280;6302;42.624;23.334;2023-04-06T12:35:13;92805.66;;;4.46;100.00
12475;BME280;6302;42.624;23.334;2023-04-06T12:37:41;92826.66;;;4.50;100.00
12475;BME280;6302;42.624;23.334;2023-04-06T12:40:09;92804.19;;;4.49;100.00
12475;BME280;6302;42.624;23.334;2023-04-06T12:42:39;92799.69;;;4.49;100.00
12475;BME280;6302;42.624;23.334;2023-04-06T12:45:08;92787.31;;;4.50;100.00
12475;BME280;6302;42.624;23.334;2023-04-06T12:47:35;92786.22;;;4.51;100.00
12475;BME280;6302;42.624;23.334;2023-04-06T12:50:03;92797.81;;;4.46;100.00
12475;BME280;6302;42.624;23.334;2023-04-06T12:52:30;92794.84;;;4.51;100.00
12475;BME280;6302;42.624;23.334;2023-04-06T12:55:00;92783.56;;;4.47;100.00
12475;BME280;6302;42.624;23.334;2023-04-06T12:57:27;92790.72;;;4.54;100.00
12475;BME280;6302;42.624;23.334;2023-04-06T12:59:56;92795.91;;;4.43;100.00